sensor_id;sensor_type;location;lat;lon;timestamp;P1;durP1;ratioP1;P2;durP2;ratioP2
68523;SDS011;55524;51.380;13.372;2023-04-05T00:01:32;3.63;;;2.00;;
68523;SDS011;55524;51.380;13.372;2023-04-05T00:03:59;4.00;;;1.95;;
68523;SDS011;55524;51.380;13.372;2023-04-05T00:06:27;3.88;;;2.10;;
68523;SDS011;55524;51.380;13.372;2023-04-05T00:08:54;3.10;;;2.20;;
68523;SDS011;55524;51.380;13.372;2023-04-05T00:11:21;3.83;;;2.30;;
68523;SDS011;55524;51.380;13.372;2023-04-05T00:13:48;3.60;;;2.00;;
68523;SDS011;55524;51.380;13.372;2023-04-05T00:16:18;3.55;;;1.98;;
68523;SDS011;55524;51.380;13.372;2023-04-05T00:18:44;3.38;;;1.75;;
68523;SDS011;55524;51.380;13.372;2023-04-05T00:21:15;3.97;;;2.45;;
68523;SDS011;55524;51.380;13.372;2023-04-05T00:23:46;3.15;;;2.20;;
68523;SDS011;55524;51.380;13.372;2023-04-05T00:26:13;2.88;;;2.25;;
68523;SDS011;55524;51.380;13.372;2023-04-05T00:28:39;4.55;;;2.20;;
68523;SDS011;55524;51.380;13.372;2023-04-05T00:31:05;2.10;;;1.90;;
68523;SDS011;55524;51.380;13.372;2023-04-05T00:33:32;2.88;;;2.38;;
68523;SDS011;55524;51.380;13.372;2023-04-05T00:36:06;3.92;;;2.15;;
68523;SDS011;55524;51.380;13.372;2023-04-05T00:38:36;5.85;;;2.30;;
68523;SDS011;55524;51.380;13.372;2023-04-05T00:41:03;5.18;;;2.45;;
68523;SDS011;55524;51.380;13.372;2023-04-05T00:43:30;3.25;;;1.90;;
68523;SDS011;55524;51.380;13.372;2023-04-05T00:45:56;3.97;;;2.40;;
68523;SDS011;55524;51.380;13.372;2023-04-05T00:48:22;4.53;;;2.28;;
68523;SDS011;55524;51.380;13.372;2023-04-05T00:50:49;3.30;;;2.10;;
68523;SDS011;55524;51.380;13.372;2023-04-05T00:53:19;4.25;;;2.30;;
68523;SDS011;55524;51.380;13.372;2023-04-05T00:55:46;2.67;;;2.40;;
68523;SDS011;55524;51.380;13.372;2023-04-05T00:58:14;5.03;;;2.20;;
68523;SDS011;55524;51.380;13.372;2023-04-05T01:01:09;4.95;;;2.42;;
68523;SDS011;55524;51.380;13.372;2023-04-05T01:04:15;5.20;;;2.10;;
68523;SDS011;55524;51.380;13.372;2023-04-05T01:06:42;2.78;;;2.10;;
68523;SDS011;55524;51.380;13.372;2023-04-05T01:09:40;2.92;;;2.20;;
68523;SDS011;55524;51.380;13.372;2023-04-05T01:12:17;6.95;;;2.25;;
68523;SDS011;55524;51.380;13.372;2023-04-05T01:14:47;3.22;;;2.20;;
68523;SDS011;55524;51.380;13.372;2023-04-05T01:17:19;5.28;;;2.40;;
68523;SDS011;55524;51.380;13.372;2023-04-05T01:19:48;4.35;;;2.17;;
68523;SDS011;55524;51.380;13.372;2023-04-05T01:30:43;2.45;;;2.22;;
68523;SDS011;55524;51.380;13.372;2023-04-05T01:33:27;4.07;;;2.30;;
68523;SDS011;55524;51.380;13.372;2023-04-05T01:36:05;5.80;;;2.40;;
68523;SDS011;55524;51.380;13.372;2023-04-05T01:38:48;2.22;;;2.03;;
68523;SDS011;55524;51.380;13.372;2023-04-05T01:41:16;4.22;;;2.30;;
68523;SDS011;55524;51.380;13.372;2023-04-05T01:43:42;3.20;;;2.20;;
68523;SDS011;55524;51.380;13.372;2023-04-05T01:46:09;2.53;;;2.30;;
68523;SDS011;55524;51.380;13.372;2023-04-05T01:48:35;3.15;;;2.20;;
68523;SDS011;55524;51.380;13.372;2023-04-05T01:51:01;4.28;;;2.50;;
68523;SDS011;55524;51.380;13.372;2023-04-05T01:53:28;2.85;;;2.00;;
68523;SDS011;55524;51.380;13.372;2023-04-05T01:55:58;2.53;;;2.30;;
68523;SDS011;55524;51.380;13.372;2023-04-05T01:58:25;4.10;;;2.58;;
68523;SDS011;55524;51.380;13.372;2023-04-05T02:00:55;3.45;;;2.20;;
68523;SDS011;55524;51.380;13.372;2023-04-05T02:03:22;4.75;;;2.72;;
68523;SDS011;55524;51.380;13.372;2023-04-05T02:05:49;4.25;;;2.40;;
68523;SDS011;55524;51.380;13.372;2023-04-05T02:08:16;2.97;;;2.47;;
68523;SDS011;55524;51.380;13.372;2023-04-05T02:10:43;2.45;;;2.25;;
68523;SDS011;55524;51.380;13.372;2023-04-05T02:13:09;3.65;;;2.20;;
68523;SDS011;55524;51.380;13.372;2023-04-05T02:15:37;3.03;;;2.30;;
68523;SDS011;55524;51.380;13.372;2023-04-05T02:18:04;3.53;;;2.20;;
68523;SDS011;55524;51.380;13.372;2023-04-05T02:20:32;3.20;;;2.53;;
68523;SDS011;55524;51.380;13.372;2023-04-05T02:22:58;6.10;;;2.20;;
68523;SDS011;55524;51.380;13.372;2023-04-05T02:25:26;5.40;;;2.75;;
68523;SDS011;55524;51.380;13.372;2023-04-05T02:27:52;5.13;;;2.42;;
68523;SDS011;55524;51.380;13.372;2023-04-05T02:30:18;5.28;;;2.60;;
68523;SDS011;55524;51.380;13.372;2023-04-05T02:32:45;3.13;;;2.47;;
68523;SDS011;55524;51.380;13.372;2023-04-05T02:35:11;4.40;;;2.30;;
68523;SDS011;55524;51.380;13.372;2023-04-05T02:37:37;2.42;;;2.20;;
68523;SDS011;55524;51.380;13.372;2023-04-05T02:40:05;2.88;;;2.05;;
68523;SDS011;55524;51.380;13.372;2023-04-05T02:42:36;5.00;;;2.40;;
68523;SDS011;55524;51.380;13.372;2023-04-05T02:45:02;3.13;;;2.58;;
68523;SDS011;55524;51.380;13.372;2023-04-05T02:47:29;3.63;;;2.50;;
68523;SDS011;55524;51.380;13.372;2023-04-05T02:49:55;4.97;;;2.42;;
68523;SDS011;55524;51.380;13.372;2023-04-05T02:52:22;2.85;;;2.55;;
68523;SDS011;55524;51.380;13.372;2023-04-05T02:54:48;3.40;;;2.38;;
68523;SDS011;55524;51.380;13.372;2023-04-05T02:57:14;2.65;;;2.13;;
68523;SDS011;55524;51.380;13.372;2023-04-05T02:59:42;5.47;;;2.83;;
68523;SDS011;55524;51.380;13.372;2023-04-05T03:02:09;3.25;;;2.50;;
68523;SDS011;55524;51.380;13.372;2023-04-05T03:04:35;3.58;;;2.60;;
68523;SDS011;55524;51.380;13.372;2023-04-05T03:07:03;3.00;;;2.30;;
68523;SDS011;55524;51.380;13.372;2023-04-05T03:09:29;4.18;;;2.42;;
68523;SDS011;55524;51.380;13.372;2023-04-05T03:12:03;2.95;;;2.35;;
68523;SDS011;55524;51.380;13.372;2023-04-05T03:14:30;5.70;;;2.70;;
68523;SDS011;55524;51.380;13.372;2023-04-05T03:16:57;4.40;;;2.50;;
68523;SDS011;55524;51.380;13.372;2023-04-05T03:19:24;5.00;;;2.85;;
68523;SDS011;55524;51.380;13.372;2023-04-05T03:21:51;6.38;;;2.10;;
68523;SDS011;55524;51.380;13.372;2023-04-05T03:24:18;3.50;;;2.50;;
68523;SDS011;55524;51.380;13.372;2023-04-05T03:26:44;2.50;;;2.30;;
68523;SDS011;55524;51.380;13.372;2023-04-05T03:29:12;3.25;;;2.35;;
68523;SDS011;55524;51.380;13.372;2023-04-05T03:31:38;3.17;;;2.22;;
68523;SDS011;55524;51.380;13.372;2023-04-05T03:34:04;4.25;;;2.50;;
68523;SDS011;55524;51.380;13.372;2023-04-05T03:36:31;5.78;;;2.80;;
68523;SDS011;55524;51.380;13.372;2023-04-05T03:39:09;3.85;;;2.70;;
68523;SDS011;55524;51.380;13.372;2023-04-05T03:41:37;2.80;;;2.45;;
68523;SDS011;55524;51.380;13.372;2023-04-05T03:44:04;3.47;;;2.63;;
68523;SDS011;55524;51.380;13.372;2023-04-05T03:46:31;3.85;;;2.55;;
68523;SDS011;55524;51.380;13.372;2023-04-05T03:48:58;3.97;;;2.58;;
68523;SDS011;55524;51.380;13.372;2023-04-05T03:51:26;6.50;;;2.83;;
68523;SDS011;55524;51.380;13.372;2023-04-05T03:53:52;4.13;;;2.60;;
68523;SDS011;55524;51.380;13.372;2023-04-05T03:56:18;2.50;;;2.30;;
68523;SDS011;55524;51.380;13.372;2023-04-05T03:58:45;4.18;;;2.72;;
68523;SDS011;55524;51.380;13.372;2023-04-05T04:01:13;5.68;;;2.83;;
68523;SDS011;55524;51.380;13.372;2023-04-05T04:03:40;5.82;;;2.83;;
68523;SDS011;55524;51.380;13.372;2023-04-05T04:06:07;6.25;;;3.15;;
68523;SDS011;55524;51.380;13.372;2023-04-05T04:08:33;4.15;;;2.65;;
68523;SDS011;55524;51.380;13.372;2023-04-05T04:10:59;4.35;;;2.83;;
68523;SDS011;55524;51.380;13.372;2023-04-05T04:13:26;4.45;;;2.88;;
68523;SDS011;55524;51.380;13.372;2023-04-05T04:15:53;4.93;;;2.92;;
68523;SDS011;55524;51.380;13.372;2023-04-05T04:18:19;3.92;;;2.80;;
68523;SDS011;55524;51.380;13.372;2023-04-05T04:20:45;4.95;;;2.88;;
68523;SDS011;55524;51.380;13.372;2023-04-05T04:23:12;5.00;;;2.78;;
68523;SDS011;55524;51.380;13.372;2023-04-05T04:25:40;6.03;;;3.33;;
68523;SDS011;55524;51.380;13.372;2023-04-05T04:28:10;4.43;;;2.83;;
68523;SDS011;55524;51.380;13.372;2023-04-05T04:30:36;5.70;;;3.05;;
68523;SDS011;55524;51.380;13.372;2023-04-05T04:33:03;4.38;;;2.88;;
68523;SDS011;55524;51.380;13.372;2023-04-05T04:35:32;5.88;;;2.63;;
68523;SDS011;55524;51.380;13.372;2023-04-05T04:38:02;4.18;;;3.17;;
68523;SDS011;55524;51.380;13.372;2023-04-05T04:40:33;8.10;;;3.53;;
68523;SDS011;55524;51.380;13.372;2023-04-05T04:43:06;6.63;;;4.30;;
68523;SDS011;55524;51.380;13.372;2023-04-05T04:45:38;5.03;;;4.50;;
68523;SDS011;55524;51.380;13.372;2023-04-05T04:48:05;5.20;;;3.42;;
68523;SDS011;55524;51.380;13.372;2023-04-05T04:50:33;3.70;;;3.17;;
68523;SDS011;55524;51.380;13.372;2023-04-05T04:53:01;3.70;;;2.80;;
68523;SDS011;55524;51.380;13.372;2023-04-05T04:55:28;4.60;;;2.53;;
68523;SDS011;55524;51.380;13.372;2023-04-05T04:57:54;4.30;;;2.67;;
68523;SDS011;55524;51.380;13.372;2023-04-05T05:00:21;5.53;;;2.75;;
68523;SDS011;55524;51.380;13.372;2023-04-05T05:02:48;4.97;;;2.60;;
68523;SDS011;55524;51.380;13.372;2023-04-05T05:05:19;3.90;;;2.80;;
68523;SDS011;55524;51.380;13.372;2023-04-05T05:07:48;3.42;;;2.80;;
68523;SDS011;55524;51.380;13.372;2023-04-05T05:10:16;9.40;;;2.80;;
68523;SDS011;55524;51.380;13.372;2023-04-05T05:12:43;4.25;;;2.72;;
68523;SDS011;55524;51.380;13.372;2023-04-05T05:15:10;5.43;;;3.10;;
68523;SDS011;55524;51.380;13.372;2023-04-05T05:17:37;4.20;;;3.80;;
68523;SDS011;55524;51.380;13.372;2023-04-05T05:20:03;3.95;;;3.33;;
68523;SDS011;55524;51.380;13.372;2023-04-05T05:22:37;6.10;;;4.35;;
68523;SDS011;55524;51.380;13.372;2023-04-05T05:25:04;6.68;;;4.22;;
68523;SDS011;55524;51.380;13.372;2023-04-05T05:27:31;3.65;;;2.80;;
68523;SDS011;55524;51.380;13.372;2023-04-05T05:30:00;3.70;;;2.97;;
68523;SDS011;55524;51.380;13.372;2023-04-05T05:32:27;6.53;;;3.60;;
68523;SDS011;55524;51.380;13.372;2023-04-05T05:34:53;7.32;;;3.15;;
68523;SDS011;55524;51.380;13.372;2023-04-05T05:37:20;5.57;;;2.60;;
68523;SDS011;55524;51.380;13.372;2023-04-05T05:39:54;3.90;;;2.88;;
68523;SDS011;55524;51.380;13.372;2023-04-05T05:42:21;17.83;;;3.33;;
68523;SDS011;55524;51.380;13.372;2023-04-05T05:44:47;19.80;;;3.72;;
68523;SDS011;55524;51.380;13.372;2023-04-05T05:47:14;5.70;;;3.33;;
68523;SDS011;55524;51.380;13.372;2023-04-05T05:49:40;2.63;;;2.42;;
68523;SDS011;55524;51.380;13.372;2023-04-05T05:52:06;4.30;;;2.95;;
68523;SDS011;55524;51.380;13.372;2023-04-05T05:54:32;3.90;;;2.90;;
68523;SDS011;55524;51.380;13.372;2023-04-05T05:56:59;8.10;;;3.38;;
68523;SDS011;55524;51.380;13.372;2023-04-05T05:59:26;6.28;;;3.05;;
68523;SDS011;55524;51.380;13.372;2023-04-05T06:01:53;7.18;;;3.08;;
68523;SDS011;55524;51.380;13.372;2023-04-05T06:04:19;4.88;;;2.83;;
68523;SDS011;55524;51.380;13.372;2023-04-05T06:06:46;3.63;;;2.60;;
68523;SDS011;55524;51.380;13.372;2023-04-05T06:09:13;6.47;;;2.90;;
68523;SDS011;55524;51.380;13.372;2023-04-05T06:11:40;9.55;;;2.90;;
68523;SDS011;55524;51.380;13.372;2023-04-05T06:14:06;9.32;;;3.22;;
68523;SDS011;55524;51.380;13.372;2023-04-05T06:16:33;4.90;;;2.50;;
68523;SDS011;55524;51.380;13.372;2023-04-05T06:18:59;4.60;;;2.58;;
68523;SDS011;55524;51.380;13.372;2023-04-05T06:21:26;5.32;;;2.58;;
68523;SDS011;55524;51.380;13.372;2023-04-05T06:23:52;3.72;;;2.40;;
68523;SDS011;55524;51.380;13.372;2023-04-05T06:26:19;55.13;;;6.22;;
68523;SDS011;55524;51.380;13.372;2023-04-05T06:28:48;3.95;;;2.40;;
68523;SDS011;55524;51.380;13.372;2023-04-05T06:31:15;7.25;;;2.55;;
68523;SDS011;55524;51.380;13.372;2023-04-05T06:33:44;10.27;;;2.70;;
68523;SDS011;55524;51.380;13.372;2023-04-05T06:36:10;15.35;;;3.10;;
68523;SDS011;55524;51.380;13.372;2023-04-05T06:38:36;5.07;;;2.58;;
68523;SDS011;55524;51.380;13.372;2023-04-05T06:41:03;10.38;;;2.55;;
68523;SDS011;55524;51.380;13.372;2023-04-05T06:43:29;11.65;;;2.92;;
68523;SDS011;55524;51.380;13.372;2023-04-05T06:45:56;15.77;;;3.13;;
68523;SDS011;55524;51.380;13.372;2023-04-05T06:48:23;8.75;;;2.50;;
68523;SDS011;55524;51.380;13.372;2023-04-05T06:50:56;9.35;;;2.67;;
68523;SDS011;55524;51.380;13.372;2023-04-05T06:53:26;4.30;;;2.33;;
68523;SDS011;55524;51.380;13.372;2023-04-05T06:55:54;5.25;;;2.40;;
68523;SDS011;55524;51.380;13.372;2023-04-05T06:58:22;12.32;;;2.83;;
68523;SDS011;55524;51.380;13.372;2023-04-05T07:00:49;3.42;;;2.35;;
68523;SDS011;55524;51.380;13.372;2023-04-05T07:03:16;7.22;;;2.72;;
68523;SDS011;55524;51.380;13.372;2023-04-05T07:05:53;3.58;;;2.28;;
68523;SDS011;55524;51.380;13.372;2023-04-05T07:08:23;6.65;;;2.78;;
68523;SDS011;55524;51.380;13.372;2023-04-05T07:10:51;18.55;;;3.45;;
68523;SDS011;55524;51.380;13.372;2023-04-05T07:13:19;5.88;;;2.42;;
68523;SDS011;55524;51.380;13.372;2023-04-05T07:15:46;22.02;;;3.30;;
68523;SDS011;55524;51.380;13.372;2023-04-05T07:18:13;9.60;;;2.80;;
68523;SDS011;55524;51.380;13.372;2023-04-05T07:20:42;5.07;;;2.80;;
68523;SDS011;55524;51.380;13.372;2023-04-05T07:23:10;9.30;;;2.70;;
68523;SDS011;55524;51.380;13.372;2023-04-05T07:25:38;7.57;;;2.45;;
68523;SDS011;55524;51.380;13.372;2023-04-05T07:28:05;5.75;;;2.53;;
68523;SDS011;55524;51.380;13.372;2023-04-05T07:30:31;6.95;;;2.20;;
68523;SDS011;55524;51.380;13.372;2023-04-05T07:32:58;14.38;;;2.95;;
68523;SDS011;55524;51.380;13.372;2023-04-05T07:35:24;9.25;;;2.10;;
68523;SDS011;55524;51.380;13.372;2023-04-05T07:37:50;4.95;;;2.30;;
68523;SDS011;55524;51.380;13.372;2023-04-05T07:40:17;6.28;;;2.50;;
68523;SDS011;55524;51.380;13.372;2023-04-05T07:42:43;4.72;;;2.40;;
68523;SDS011;55524;51.380;13.372;2023-04-05T07:45:09;3.15;;;2.35;;
68523;SDS011;55524;51.380;13.372;2023-04-05T07:47:36;2.85;;;2.30;;
68523;SDS011;55524;51.380;13.372;2023-04-05T07:50:02;4.90;;;2.20;;
68523;SDS011;55524;51.380;13.372;2023-04-05T07:52:31;10.25;;;4.10;;
68523;SDS011;55524;51.380;13.372;2023-04-05T07:54:57;3.92;;;2.40;;
68523;SDS011;55524;51.380;13.372;2023-04-05T07:57:23;7.35;;;2.65;;
68523;SDS011;55524;51.380;13.372;2023-04-05T07:59:49;3.05;;;2.30;;
68523;SDS011;55524;51.380;13.372;2023-04-05T08:02:18;3.97;;;2.30;;
68523;SDS011;55524;51.380;13.372;2023-04-05T08:04:45;7.38;;;2.55;;
68523;SDS011;55524;51.380;13.372;2023-04-05T08:07:11;8.75;;;2.55;;
68523;SDS011;55524;51.380;13.372;2023-04-05T08:09:37;5.13;;;2.47;;
68523;SDS011;55524;51.380;13.372;2023-04-05T08:12:04;3.25;;;2.40;;
68523;SDS011;55524;51.380;13.372;2023-04-05T08:14:30;7.40;;;2.58;;
68523;SDS011;55524;51.380;13.372;2023-04-05T08:16:57;4.55;;;2.67;;
68523;SDS011;55524;51.380;13.372;2023-04-05T08:19:23;11.10;;;2.72;;
68523;SDS011;55524;51.380;13.372;2023-04-05T08:21:49;4.78;;;2.60;;
68523;SDS011;55524;51.380;13.372;2023-04-05T08:24:16;4.15;;;2.40;;
68523;SDS011;55524;51.380;13.372;2023-04-05T08:26:42;6.00;;;2.58;;
68523;SDS011;55524;51.380;13.372;2023-04-05T08:29:09;6.65;;;2.78;;
68523;SDS011;55524;51.380;13.372;2023-04-05T08:31:36;13.38;;;3.53;;
68523;SDS011;55524;51.380;13.372;2023-04-05T08:34:03;4.13;;;2.50;;
68523;SDS011;55524;51.380;13.372;2023-04-05T08:36:32;6.85;;;2.45;;
68523;SDS011;55524;51.380;13.372;2023-04-05T08:38:58;2.65;;;2.20;;
68523;SDS011;55524;51.380;13.372;2023-04-05T08:41:25;3.00;;;2.70;;
68523;SDS011;55524;51.380;13.372;2023-04-05T08:44:04;6.53;;;2.75;;
68523;SDS011;55524;51.380;13.372;2023-04-05T08:46:33;5.43;;;1.95;;
68523;SDS011;55524;51.380;13.372;2023-04-05T08:49:07;3.78;;;2.20;;
68523;SDS011;55524;51.380;13.372;2023-04-05T08:51:35;5.40;;;2.40;;
68523;SDS011;55524;51.380;13.372;2023-04-05T08:54:05;2.83;;;2.15;;
68523;SDS011;55524;51.380;13.372;2023-04-05T08:56:32;5.03;;;2.30;;
68523;SDS011;55524;51.380;13.372;2023-04-05T08:59:04;6.20;;;2.53;;
68523;SDS011;55524;51.380;13.372;2023-04-05T09:01:32;3.47;;;2.42;;
68523;SDS011;55524;51.380;13.372;2023-04-05T09:04:06;7.15;;;2.35;;
68523;SDS011;55524;51.380;13.372;2023-04-05T09:06:48;6.63;;;3.13;;
68523;SDS011;55524;51.380;13.372;2023-04-05T09:09:16;6.43;;;2.58;;
68523;SDS011;55524;51.380;13.372;2023-04-05T09:11:44;6.32;;;2.00;;
68523;SDS011;55524;51.380;13.372;2023-04-05T09:14:12;2.63;;;1.95;;
68523;SDS011;55524;51.380;13.372;2023-04-05T09:16:39;3.60;;;1.80;;
68523;SDS011;55524;51.380;13.372;2023-04-05T09:19:06;3.13;;;1.92;;
68523;SDS011;55524;51.380;13.372;2023-04-05T09:24:30;2.80;;;1.50;;
68523;SDS011;55524;51.380;13.372;2023-04-05T09:27:07;1.65;;;1.55;;
68523;SDS011;55524;51.380;13.372;2023-04-05T09:29:34;5.38;;;1.35;;
68523;SDS011;55524;51.380;13.372;2023-04-05T09:32:01;4.50;;;1.27;;
68523;SDS011;55524;51.380;13.372;2023-04-05T09:34:29;3.67;;;1.33;;
68523;SDS011;55524;51.380;13.372;2023-04-05T09:36:59;2.42;;;1.20;;
68523;SDS011;55524;51.380;13.372;2023-04-05T09:39:29;2.38;;;1.10;;
68523;SDS011;55524;51.380;13.372;2023-04-05T09:42:03;3.22;;;1.10;;
68523;SDS011;55524;51.380;13.372;2023-04-05T09:44:50;1.10;;;0.90;;
68523;SDS011;55524;51.380;13.372;2023-04-05T09:47:30;0.75;;;0.70;;
68523;SDS011;55524;51.380;13.372;2023-04-05T09:52:30;7.22;;;1.75;;
68523;SDS011;55524;51.380;13.372;2023-04-05T09:55:01;3.30;;;1.17;;
68523;SDS011;55524;51.380;13.372;2023-04-05T09:57:34;4.53;;;1.25;;
68523;SDS011;55524;51.380;13.372;2023-04-05T10:00:02;8.18;;;2.28;;
68523;SDS011;55524;51.380;13.372;2023-04-05T10:02:36;4.22;;;1.50;;
68523;SDS011;55524;51.380;13.372;2023-04-05T10:05:07;4.05;;;1.60;;
68523;SDS011;55524;51.380;13.372;2023-04-05T10:07:39;5.25;;;1.58;;
68523;SDS011;55524;51.380;13.372;2023-04-05T10:10:10;2.75;;;1.52;;
68523;SDS011;55524;51.380;13.372;2023-04-05T10:12:40;8.70;;;1.87;;
68523;SDS011;55524;51.380;13.372;2023-04-05T10:15:07;6.25;;;2.00;;
68523;SDS011;55524;51.380;13.372;2023-04-05T10:17:45;4.65;;;1.45;;
68523;SDS011;55524;51.380;13.372;2023-04-05T10:28:34;3.97;;;1.50;;
68523;SDS011;55524;51.380;13.372;2023-04-05T10:33:55;1.55;;;1.40;;
68523;SDS011;55524;51.380;13.372;2023-04-05T10:36:44;1.50;;;1.40;;
68523;SDS011;55524;51.380;13.372;2023-04-05T10:39:21;1.80;;;1.45;;
68523;SDS011;55524;51.380;13.372;2023-04-05T10:42:36;2.40;;;1.55;;
68523;SDS011;55524;51.380;13.372;2023-04-05T10:45:01;4.05;;;1.23;;
68523;SDS011;55524;51.380;13.372;2023-04-05T10:48:07;2.75;;;1.67;;
68523;SDS011;55524;51.380;13.372;2023-04-05T10:50:53;2.95;;;1.48;;
68523;SDS011;55524;51.380;13.372;2023-04-05T10:53:20;3.10;;;1.80;;
68523;SDS011;55524;51.380;13.372;2023-04-05T10:55:47;2.28;;;1.45;;
68523;SDS011;55524;51.380;13.372;2023-04-05T10:58:15;2.58;;;1.70;;
68523;SDS011;55524;51.380;13.372;2023-04-05T11:00:42;1.88;;;1.30;;
68523;SDS011;55524;51.380;13.372;2023-04-05T11:03:10;3.03;;;1.45;;
68523;SDS011;55524;51.380;13.372;2023-04-05T11:06:30;2.25;;;1.35;;
68523;SDS011;55524;51.380;13.372;2023-04-05T11:09:08;1.92;;;1.58;;
68523;SDS011;55524;51.380;13.372;2023-04-05T11:11:47;5.53;;;1.40;;
68523;SDS011;55524;51.380;13.372;2023-04-05T11:14:21;4.00;;;1.90;;
68523;SDS011;55524;51.380;13.372;2023-04-05T11:16:53;2.45;;;2.15;;
68523;SDS011;55524;51.380;13.372;2023-04-05T11:22:08;3.90;;;1.67;;
68523;SDS011;55524;51.380;13.372;2023-04-05T11:24:55;5.47;;;1.70;;
68523;SDS011;55524;51.380;13.372;2023-04-05T11:27:27;1.52;;;1.42;;
68523;SDS011;55524;51.380;13.372;2023-04-05T11:30:01;1.73;;;1.33;;
68523;SDS011;55524;51.380;13.372;2023-04-05T11:35:07;3.25;;;1.50;;
68523;SDS011;55524;51.380;13.372;2023-04-05T11:42:58;7.55;;;1.48;;
68523;SDS011;55524;51.380;13.372;2023-04-05T11:45:35;6.63;;;1.38;;
68523;SDS011;55524;51.380;13.372;2023-04-05T11:48:06;1.83;;;1.17;;
68523;SDS011;55524;51.380;13.372;2023-04-05T11:50:35;11.52;;;1.45;;
68523;SDS011;55524;51.380;13.372;2023-04-05T11:53:15;5.07;;;1.30;;
68523;SDS011;55524;51.380;13.372;2023-04-05T11:55:45;3.00;;;1.23;;
68523;SDS011;55524;51.380;13.372;2023-04-05T11:58:21;1.20;;;1.10;;
68523;SDS011;55524;51.380;13.372;2023-04-05T12:01:01;2.60;;;1.20;;
68523;SDS011;55524;51.380;13.372;2023-04-05T12:03:28;1.77;;;1.38;;
68523;SDS011;55524;51.380;13.372;2023-04-05T12:05:56;3.40;;;1.40;;
68523;SDS011;55524;51.380;13.372;2023-04-05T12:08:36;1.38;;;1.27;;
68523;SDS011;55524;51.380;13.372;2023-04-05T12:11:07;2.35;;;1.17;;
68523;SDS011;55524;51.380;13.372;2023-04-05T12:13:36;1.75;;;1.05;;
68523;SDS011;55524;51.380;13.372;2023-04-05T12:16:03;3.75;;;1.20;;
68523;SDS011;55524;51.380;13.372;2023-04-05T12:18:32;2.35;;;1.10;;
68523;SDS011;55524;51.380;13.372;2023-04-05T12:21:00;2.10;;;1.25;;
68523;SDS011;55524;51.380;13.372;2023-04-05T12:23:29;3.78;;;2.05;;
68523;SDS011;55524;51.380;13.372;2023-04-05T12:25:56;5.53;;;1.83;;
68523;SDS011;55524;51.380;13.372;2023-04-05T12:28:23;3.70;;;1.45;;
68523;SDS011;55524;51.380;13.372;2023-04-05T12:30:50;3.65;;;1.10;;
68523;SDS011;55524;51.380;13.372;2023-04-05T12:33:27;1.50;;;1.40;;
68523;SDS011;55524;51.380;13.372;2023-04-05T12:35:56;4.50;;;0.93;;
68523;SDS011;55524;51.380;13.372;2023-04-05T12:38:24;6.28;;;1.45;;
68523;SDS011;55524;51.380;13.372;2023-04-05T12:40:53;2.20;;;1.20;;
68523;SDS011;55524;51.380;13.372;2023-04-05T12:43:23;7.78;;;1.20;;
68523;SDS011;55524;51.380;13.372;2023-04-05T12:45:52;10.25;;;1.33;;
68523;SDS011;55524;51.380;13.372;2023-04-05T12:48:20;1.55;;;0.82;;
68523;SDS011;55524;51.380;13.372;2023-04-05T12:50:49;3.20;;;1.27;;
68523;SDS011;55524;51.380;13.372;2023-04-05T12:53:18;2.35;;;1.05;;
68523;SDS011;55524;51.380;13.372;2023-04-05T12:58:16;2.25;;;1.20;;
68523;SDS011;55524;51.380;13.372;2023-04-05T13:00:43;3.20;;;1.27;;
68523;SDS011;55524;51.380;13.372;2023-04-05T13:03:16;2.17;;;1.10;;
68523;SDS011;55524;51.380;13.372;2023-04-05T13:05:45;5.60;;;1.40;;
68523;SDS011;55524;51.380;13.372;2023-04-05T13:08:15;13.40;;;1.50;;
68523;SDS011;55524;51.380;13.372;2023-04-05T13:10:43;1.60;;;1.20;;
68523;SDS011;55524;51.380;13.372;2023-04-05T13:13:10;2.55;;;1.30;;
68523;SDS011;55524;51.380;13.372;2023-04-05T13:15:38;1.85;;;1.67;;
68523;SDS011;55524;51.380;13.372;2023-04-05T13:18:04;1.20;;;1.10;;
68523;SDS011;55524;51.380;13.372;2023-04-05T13:20:31;3.22;;;1.35;;
68523;SDS011;55524;51.380;13.372;2023-04-05T13:22:57;2.85;;;2.42;;
68523;SDS011;55524;51.380;13.372;2023-04-05T13:25:24;3.47;;;1.70;;
68523;SDS011;55524;51.380;13.372;2023-04-05T13:27:50;3.75;;;2.42;;
68523;SDS011;55524;51.380;13.372;2023-04-05T13:30:17;4.35;;;1.52;;
68523;SDS011;55524;51.380;13.372;2023-04-05T13:32:43;2.83;;;2.20;;
68523;SDS011;55524;51.380;13.372;2023-04-05T13:35:10;2.00;;;1.40;;
68523;SDS011;55524;51.380;13.372;2023-04-05T13:37:36;4.32;;;2.75;;
68523;SDS011;55524;51.380;13.372;2023-04-05T13:40:03;2.63;;;2.20;;
68523;SDS011;55524;51.380;13.372;2023-04-05T13:42:30;1.77;;;1.27;;
68523;SDS011;55524;51.380;13.372;2023-04-05T13:44:56;1.90;;;1.58;;
68523;SDS011;55524;51.380;13.372;2023-04-05T13:47:22;1.35;;;1.20;;
68523;SDS011;55524;51.380;13.372;2023-04-05T13:49:48;1.42;;;1.27;;
68523;SDS011;55524;51.380;13.372;2023-04-05T13:52:15;2.47;;;1.88;;
68523;SDS011;55524;51.380;13.372;2023-04-05T13:54:42;2.95;;;1.08;;
68523;SDS011;55524;51.380;13.372;2023-04-05T13:57:08;1.67;;;1.15;;
68523;SDS011;55524;51.380;13.372;2023-04-05T13:59:35;10.50;;;1.40;;
68523;SDS011;55524;51.380;13.372;2023-04-05T14:02:01;2.60;;;1.27;;
68523;SDS011;55524;51.380;13.372;2023-04-05T14:04:28;2.78;;;1.08;;
68523;SDS011;55524;51.380;13.372;2023-04-05T14:06:54;1.75;;;1.10;;
68523;SDS011;55524;51.380;13.372;2023-04-05T14:09:21;1.52;;;1.33;;
68523;SDS011;55524;51.380;13.372;2023-04-05T14:11:47;3.85;;;1.42;;
68523;SDS011;55524;51.380;13.372;2023-04-05T14:14:14;3.50;;;1.40;;
68523;SDS011;55524;51.380;13.372;2023-04-05T14:16:43;1.20;;;1.10;;
68523;SDS011;55524;51.380;13.372;2023-04-05T14:19:09;1.20;;;1.20;;
68523;SDS011;55524;51.380;13.372;2023-04-05T14:21:36;2.65;;;1.40;;
68523;SDS011;55524;51.380;13.372;2023-04-05T14:24:02;8.10;;;1.20;;
68523;SDS011;55524;51.380;13.372;2023-04-05T14:26:29;2.72;;;1.10;;
68523;SDS011;55524;51.380;13.372;2023-04-05T14:28:55;3.53;;;1.42;;
68523;SDS011;55524;51.380;13.372;2023-04-05T14:31:22;1.20;;;1.10;;
68523;SDS011;55524;51.380;13.372;2023-04-05T14:33:49;2.60;;;1.30;;
68523;SDS011;55524;51.380;13.372;2023-04-05T14:36:16;1.67;;;1.42;;
68523;SDS011;55524;51.380;13.372;2023-04-05T14:38:42;16.42;;;7.00;;
68523;SDS011;55524;51.380;13.372;2023-04-05T14:41:09;13.25;;;3.00;;
68523;SDS011;55524;51.380;13.372;2023-04-05T14:43:36;15.65;;;8.00;;
68523;SDS011;55524;51.380;13.372;2023-04-05T14:46:03;6.53;;;2.10;;
68523;SDS011;55524;51.380;13.372;2023-04-05T14:48:29;10.20;;;3.55;;
68523;SDS011;55524;51.380;13.372;2023-04-05T14:50:57;3.28;;;1.25;;
68523;SDS011;55524;51.380;13.372;2023-04-05T14:53:24;6.32;;;2.60;;
68523;SDS011;55524;51.380;13.372;2023-04-05T14:55:51;4.75;;;2.20;;
68523;SDS011;55524;51.380;13.372;2023-04-05T14:58:17;18.75;;;6.95;;
68523;SDS011;55524;51.380;13.372;2023-04-05T15:00:45;93.43;;;27.92;;
68523;SDS011;55524;51.380;13.372;2023-04-05T15:03:14;88.13;;;22.48;;
68523;SDS011;55524;51.380;13.372;2023-04-05T15:05:43;26.20;;;9.93;;
68523;SDS011;55524;51.380;13.372;2023-04-05T15:08:10;7.35;;;2.75;;
68523;SDS011;55524;51.380;13.372;2023-04-05T15:10:37;2.03;;;1.40;;
68523;SDS011;55524;51.380;13.372;2023-04-05T15:13:04;3.83;;;2.65;;
68523;SDS011;55524;51.380;13.372;2023-04-05T15:15:30;10.00;;;5.07;;
68523;SDS011;55524;51.380;13.372;2023-04-05T15:17:57;3.92;;;2.00;;
68523;SDS011;55524;51.380;13.372;2023-04-05T15:20:23;1.77;;;1.38;;
68523;SDS011;55524;51.380;13.372;2023-04-05T15:22:50;5.95;;;1.30;;